createdAt,value
2017-10-19T00:00:13.877Z,10.60
2017-10-19T00:02:40.301Z,10.87
2017-10-19T00:05:06.813Z,10.80
2017-10-19T00:07:33.240Z,10.60
2017-10-19T00:09:59.688Z,10.40
2017-10-19T00:12:26.130Z,10.77
2017-10-19T00:14:52.536Z,9.33
2017-10-19T00:17:18.948Z,10.80
2017-10-19T00:19:45.327Z,10.90
2017-10-19T00:22:12.487Z,9.40
2017-10-19T00:24:38.906Z,10.27
2017-10-19T00:27:05.344Z,10.20
2017-10-19T00:29:31.792Z,10.97
2017-10-19T00:31:58.231Z,10.77
2017-10-19T00:34:24.619Z,8.97
2017-10-19T00:36:51.060Z,9.60
2017-10-19T00:39:17.476Z,10.00
2017-10-19T00:41:43.911Z,9.83
2017-10-19T00:44:10.329Z,10.57
2017-10-19T00:46:36.782Z,10.57
2017-10-19T00:49:03.216Z,9.67
2017-10-19T00:51:29.646Z,9.83
2017-10-19T00:53:56.391Z,10.00
2017-10-19T00:56:22.865Z,9.50
2017-10-19T00:58:49.321Z,9.33
2017-10-19T01:01:15.792Z,9.93
2017-10-19T01:03:42.212Z,9.03
2017-10-19T01:06:08.709Z,13.00
2017-10-19T01:08:35.896Z,10.73
2017-10-19T01:11:02.320Z,10.23
2017-10-19T01:13:28.800Z,9.33
2017-10-19T01:15:55.235Z,10.07
2017-10-19T01:18:21.690Z,8.63
2017-10-19T01:20:48.888Z,10.80
2017-10-19T01:23:15.360Z,8.87
2017-10-19T01:25:41.907Z,12.37
2017-10-19T01:28:08.336Z,8.70
2017-10-19T01:30:34.807Z,11.10
2017-10-19T01:33:01.281Z,9.43
2017-10-19T01:35:27.728Z,9.53
2017-10-19T01:37:54.206Z,10.40
2017-10-19T01:40:20.795Z,9.13
2017-10-19T01:42:47.229Z,8.93
2017-10-19T01:45:13.791Z,10.23
2017-10-19T01:47:41.009Z,9.33
2017-10-19T01:50:07.460Z,10.33
2017-10-19T01:52:33.918Z,8.33
2017-10-19T01:55:01.152Z,8.43
2017-10-19T01:57:27.562Z,8.83
2017-10-19T01:59:53.992Z,9.10
2017-10-19T02:02:20.403Z,9.77
2017-10-19T02:04:46.900Z,8.97
2017-10-19T02:07:14.076Z,9.37
2017-10-19T02:09:40.546Z,8.43
2017-10-19T02:12:06.982Z,9.63
2017-10-19T02:14:33.508Z,10.20
2017-10-19T02:16:59.940Z,9.50
2017-10-19T02:19:26.341Z,8.20
2017-10-19T02:21:52.784Z,10.53
2017-10-19T02:24:19.215Z,9.70
2017-10-19T02:26:45.651Z,9.03
2017-10-19T02:29:12.072Z,10.63
2017-10-19T02:31:38.472Z,9.37
2017-10-19T02:34:05.649Z,9.00
2017-10-19T02:36:32.111Z,8.43
2017-10-19T02:38:58.565Z,10.10
2017-10-19T02:41:24.968Z,8.53
2017-10-19T02:43:51.477Z,9.93
2017-10-19T02:46:17.948Z,9.60
2017-10-19T02:48:44.357Z,9.10
2017-10-19T02:51:10.788Z,10.10
2017-10-19T02:53:37.211Z,10.23
2017-10-19T02:56:03.735Z,8.13
2017-10-19T02:58:30.921Z,8.80
2017-10-19T03:00:57.363Z,9.10
2017-10-19T03:03:23.809Z,10.20
2017-10-19T03:05:50.297Z,8.90
2017-10-19T03:08:16.711Z,9.77
2017-10-19T03:10:43.933Z,8.87
2017-10-19T03:13:17.106Z,8.67
2017-10-19T03:15:49.616Z,9.60
2017-10-19T03:18:22.123Z,10.10
2017-10-19T03:20:54.700Z,9.53
2017-10-19T03:23:21.120Z,9.30
2017-10-19T03:25:48.362Z,9.27
2017-10-19T03:28:14.821Z,9.17
2017-10-19T03:30:41.256Z,8.57
2017-10-19T03:33:07.692Z,10.17
2017-10-19T03:35:34.170Z,14.57
2017-10-19T03:38:01.341Z,10.20
2017-10-19T03:40:27.764Z,11.77
2017-10-19T03:42:54.216Z,11.07
2017-10-19T03:45:21.451Z,9.87
2017-10-19T03:47:47.905Z,10.60
2017-10-19T03:50:15.069Z,9.43
2017-10-19T03:52:41.574Z,11.17
2017-10-19T03:55:08.116Z,8.50
2017-10-19T03:57:34.589Z,9.03
2017-10-19T04:00:01.028Z,11.83
2017-10-19T04:02:27.449Z,11.23
2017-10-19T04:04:53.895Z,8.80
2017-10-19T04:07:20.347Z,9.03
2017-10-19T04:09:46.751Z,11.17
2017-10-19T04:12:13.166Z,9.10
2017-10-19T04:14:39.673Z,8.80
2017-10-19T04:17:06.113Z,9.17
2017-10-19T04:19:33.251Z,10.33
2017-10-19T04:21:59.660Z,9.87
2017-10-19T04:24:26.102Z,8.70
2017-10-19T04:26:52.488Z,9.90
2017-10-19T04:29:18.899Z,8.97
2017-10-19T04:31:46.072Z,9.10
2017-10-19T04:34:12.455Z,8.17
2017-10-19T04:36:38.914Z,9.00
2017-10-19T04:39:05.298Z,9.30
2017-10-19T04:41:32.253Z,8.33
2017-10-19T04:43:58.797Z,8.67
2017-10-19T04:46:25.373Z,9.10
2017-10-19T04:48:51.799Z,14.83
2017-10-19T04:51:18.941Z,8.73
2017-10-19T04:53:45.397Z,8.53
2017-10-19T04:56:12.588Z,9.73
2017-10-19T04:58:39.040Z,8.63
2017-10-19T05:01:05.581Z,9.77
2017-10-19T05:03:32.227Z,19.90
2017-10-19T05:05:59.864Z,28.23
2017-10-19T05:08:26.377Z,15.60
2017-10-19T05:10:52.860Z,19.37
2017-10-19T05:13:19.248Z,10.17
2017-10-19T05:15:45.679Z,15.80
2017-10-19T05:18:12.161Z,9.83
2017-10-19T05:20:38.575Z,13.60
2017-10-19T05:23:05.008Z,15.00
2017-10-19T05:25:31.473Z,7.67
2017-10-19T05:27:58.648Z,9.37
2017-10-19T05:30:25.079Z,9.13
2017-10-19T05:32:51.517Z,8.63
2017-10-19T05:35:17.921Z,8.30
2017-10-19T05:37:45.108Z,12.43
2017-10-19T05:40:11.537Z,8.50
2017-10-19T05:42:37.957Z,9.47
2017-10-19T05:45:04.368Z,8.50
2017-10-19T05:47:30.788Z,10.70
2017-10-19T05:49:58.260Z,11.90
2017-10-19T05:52:25.429Z,12.10
2017-10-19T05:54:51.848Z,11.37
2017-10-19T05:57:19.040Z,11.00
2017-10-19T05:59:45.493Z,9.60
2017-10-19T06:02:11.927Z,9.70
2017-10-19T06:04:38.357Z,12.00
2017-10-19T06:07:04.797Z,11.07
2017-10-19T06:09:31.245Z,9.77
2017-10-19T06:11:57.654Z,10.30
2017-10-19T06:14:24.085Z,8.80
2017-10-19T06:16:50.488Z,9.57
2017-10-19T06:19:17.761Z,13.40
2017-10-19T06:21:44.184Z,10.10
2017-10-19T06:24:10.586Z,10.63
2017-10-19T06:26:37.016Z,11.13
2017-10-19T06:29:04.160Z,11.53
2017-10-19T06:31:31.300Z,11.17
2017-10-19T06:33:58.321Z,11.70
2017-10-19T06:36:29.649Z,11.27
2017-10-19T06:39:03.763Z,14.63
2017-10-19T06:41:50.052Z,18.37
2017-10-19T06:44:18.553Z,12.73
2017-10-19T06:49:19.922Z,12.00
2017-10-19T06:51:47.167Z,10.70
2017-10-19T06:54:13.600Z,12.80
2017-10-19T06:56:40.045Z,16.10
2017-10-19T06:59:11.210Z,15.67
2017-10-19T07:01:37.669Z,25.10
2017-10-19T07:04:04.917Z,19.57
2017-10-19T07:06:33.080Z,16.43
2017-10-19T07:09:00.321Z,18.33
2017-10-19T07:11:27.775Z,18.73
2017-10-19T07:14:02.414Z,14.13
2017-10-19T07:16:31.018Z,17.10
2017-10-19T07:18:58.426Z,15.47
2017-10-19T07:21:26.775Z,12.20
2017-10-19T07:23:55.849Z,14.73
2017-10-19T07:26:30.273Z,10.53
2017-10-19T07:28:57.515Z,10.87
2017-10-19T07:31:27.316Z,10.23
2017-10-19T07:33:54.553Z,11.93
2017-10-19T07:42:23.437Z,11.97
2017-10-19T07:44:50.352Z,11.07
2017-10-19T07:47:21.917Z,13.70
2017-10-19T07:49:49.162Z,10.50
2017-10-19T07:52:16.516Z,11.77
2017-10-19T07:54:44.271Z,14.23
2017-10-19T07:57:14.364Z,12.90
2017-10-19T07:59:40.929Z,13.23
2017-10-19T08:02:29.996Z,11.37
2017-10-19T08:04:59.427Z,10.20
2017-10-19T08:07:25.892Z,11.73
2017-10-19T08:09:53.724Z,9.70
2017-10-19T08:12:20.939Z,12.27
2017-10-19T08:14:48.095Z,14.00
2017-10-19T08:17:14.629Z,13.97
2017-10-19T08:19:42.589Z,12.03
2017-10-19T08:22:10.758Z,12.17
2017-10-19T08:24:37.987Z,12.87
2017-10-19T08:51:59.668Z,27.43
2017-10-19T08:54:26.118Z,24.70
2017-10-19T08:56:53.533Z,23.43
2017-10-19T08:59:23.055Z,28.40
2017-10-19T09:01:49.563Z,30.30
2017-10-19T09:04:19.276Z,28.43
2017-10-19T09:06:46.494Z,28.27
2017-10-19T09:09:29.250Z,31.90
2017-10-19T09:11:55.792Z,33.33
2017-10-19T09:14:24.521Z,35.67
2017-10-19T09:16:52.417Z,35.23
2017-10-19T09:19:23.962Z,31.40
2017-10-19T09:21:50.402Z,41.20
2017-10-19T09:24:17.733Z,40.93
2017-10-19T09:26:44.220Z,46.43
2017-10-19T09:29:11.617Z,37.83
2017-10-19T09:31:46.074Z,31.47
2017-10-19T09:34:14.412Z,33.97
2017-10-19T09:36:43.636Z,40.87
2017-10-19T09:39:14.608Z,43.00
2017-10-19T09:44:27.772Z,39.00
2017-10-19T09:46:55.106Z,38.40
2017-10-19T09:49:22.708Z,39.57
2017-10-19T09:51:54.417Z,42.93
2017-10-19T09:54:20.974Z,38.50
2017-10-19T10:02:23.602Z,39.87
2017-10-19T10:04:52.130Z,38.30
2017-10-19T10:07:18.569Z,38.40
2017-10-19T10:09:46.476Z,46.20
2017-10-19T10:12:12.954Z,39.00
2017-10-19T10:14:41.948Z,40.57
2017-10-19T10:19:43.073Z,39.57
2017-10-19T10:22:10.301Z,38.93
2017-10-19T10:24:43.597Z,38.00
2017-10-19T11:09:31.229Z,29.57
2017-10-19T11:11:57.643Z,30.07
2017-10-19T11:14:24.113Z,27.67
2017-10-19T11:16:50.521Z,29.60
2017-10-19T11:19:16.931Z,27.97
2017-10-19T11:21:43.327Z,25.23
2017-10-19T11:24:10.485Z,29.83
2017-10-19T11:26:36.919Z,32.13
2017-10-19T11:29:03.345Z,26.30
2017-10-19T11:31:30.490Z,26.63
2017-10-19T11:33:57.637Z,25.17
2017-10-19T11:36:24.816Z,30.37
2017-10-19T11:38:51.204Z,23.57
2017-10-19T11:41:17.647Z,19.97
2017-10-19T11:43:44.804Z,21.87
2017-10-19T11:46:11.968Z,20.27
2017-10-19T11:48:38.353Z,18.10
2017-10-19T11:51:04.791Z,14.97
2017-10-19T11:53:31.185Z,21.87
2017-10-19T11:55:57.584Z,20.87
2017-10-19T11:58:24.752Z,23.20
2017-10-19T12:00:51.188Z,20.43
2017-10-19T12:03:17.663Z,18.30
2017-10-19T12:05:44.813Z,17.00
2017-10-19T12:08:11.230Z,18.13
2017-10-19T12:10:37.660Z,17.20
2017-10-19T12:13:04.071Z,20.03
2017-10-19T12:15:30.505Z,21.20
2017-10-19T12:17:57.684Z,17.93
2017-10-19T12:20:24.133Z,19.50
2017-10-19T12:22:50.511Z,19.60
2017-10-19T12:25:17.677Z,19.17
2017-10-19T12:27:44.077Z,19.63
2017-10-19T12:30:11.217Z,14.40
2017-10-19T12:32:37.659Z,13.80
2017-10-19T12:35:04.812Z,14.47
2017-10-19T12:37:31.972Z,14.27
2017-10-19T12:39:59.108Z,15.47
2017-10-19T12:42:25.614Z,13.30
2017-10-19T12:44:52.033Z,12.47
2017-10-19T12:47:18.460Z,17.30
2017-10-19T12:49:44.873Z,15.07
2017-10-19T12:52:11.259Z,14.70
2017-10-19T12:54:37.659Z,15.77
2017-10-19T12:57:04.849Z,15.17
2017-10-19T12:59:31.984Z,17.40
2017-10-19T13:01:58.400Z,15.70
2017-10-19T13:04:24.817Z,18.23
2017-10-19T13:06:51.248Z,18.00
2017-10-19T13:09:17.640Z,18.60
2017-10-19T13:11:44.779Z,19.40
2017-10-19T13:14:11.201Z,18.90
2017-10-19T13:16:37.644Z,18.93
2017-10-19T13:19:04.821Z,19.50
2017-10-19T13:21:31.254Z,21.27
2017-10-19T13:23:57.647Z,19.17
2017-10-19T13:26:24.099Z,20.13
2017-10-19T13:28:51.273Z,20.93
2017-10-19T13:31:17.657Z,16.97
2017-10-19T13:33:44.088Z,20.33
2017-10-19T13:36:10.506Z,21.53
2017-10-19T13:38:36.892Z,19.37
2017-10-19T13:41:04.068Z,21.70
2017-10-19T13:43:30.547Z,19.83
2017-10-19T13:45:56.985Z,19.77
2017-10-19T13:48:23.408Z,22.10
2017-10-19T13:50:49.836Z,20.23
2017-10-19T13:53:16.212Z,20.83
2017-10-19T13:55:43.384Z,19.80
2017-10-19T13:58:09.781Z,22.37
2017-10-19T14:00:36.949Z,21.70
2017-10-19T14:03:03.356Z,18.73
2017-10-19T14:05:30.523Z,20.20
2017-10-19T14:07:57.687Z,18.60
2017-10-19T14:10:24.113Z,25.80
2017-10-19T14:12:50.540Z,23.03
2017-10-19T14:15:16.957Z,25.80
2017-10-19T14:17:44.113Z,27.47
2017-10-19T14:20:11.261Z,26.07
2017-10-19T14:22:38.417Z,24.10
2017-10-19T14:25:05.573Z,19.80
2017-10-19T14:27:32.029Z,17.33
2017-10-19T14:29:58.424Z,17.17
2017-10-19T14:32:25.551Z,17.43
2017-10-19T14:34:52.100Z,17.80
2017-10-19T14:37:18.496Z,17.20
2017-10-19T14:39:44.886Z,18.13
2017-10-19T14:42:12.051Z,17.20
2017-10-19T14:44:38.481Z,17.40
2017-10-19T14:47:04.934Z,17.97
2017-10-19T14:49:31.371Z,15.90
2017-10-19T14:51:57.816Z,16.33
2017-10-19T14:54:25.010Z,16.43
2017-10-19T14:56:52.156Z,16.47
2017-10-19T14:59:18.599Z,18.03
2017-10-19T15:01:45.748Z,17.40
2017-10-19T15:04:12.907Z,17.57
2017-10-19T15:06:40.126Z,16.33
2017-10-19T15:09:06.659Z,17.23
2017-10-19T15:11:33.084Z,15.43
2017-10-19T15:13:59.588Z,18.47
2017-10-19T15:16:27.437Z,17.87
2017-10-19T15:18:53.937Z,15.77
2017-10-19T15:21:20.327Z,16.93
2017-10-19T15:23:46.747Z,17.00
2017-10-19T15:26:13.324Z,16.53
2017-10-19T15:28:40.049Z,17.53
2017-10-19T15:31:06.510Z,16.70
2017-10-19T15:33:32.981Z,16.00
2017-10-19T15:35:59.452Z,15.10
2017-10-19T15:38:25.904Z,15.03
2017-10-19T15:40:52.321Z,16.10
2017-10-19T15:43:18.699Z,14.47
2017-10-19T15:45:50.515Z,13.60
2017-10-19T15:48:16.928Z,14.73
2017-10-19T15:50:55.661Z,15.27
2017-10-19T15:53:22.060Z,14.17
2017-10-19T15:55:48.511Z,14.07
2017-10-19T15:58:14.887Z,14.97
2017-10-19T16:00:41.291Z,15.73
2017-10-19T16:03:08.440Z,14.17
2017-10-19T16:05:34.848Z,15.20
2017-10-19T16:08:01.268Z,15.23
2017-10-19T16:10:27.704Z,15.93
2017-10-19T16:12:54.115Z,16.83
2017-10-19T16:15:21.333Z,16.53
2017-10-19T16:17:47.776Z,17.07
2017-10-19T16:20:14.158Z,17.00
2017-10-19T16:22:40.551Z,16.67
2017-10-19T16:25:07.077Z,16.13
2017-10-19T16:27:33.465Z,17.27
2017-10-19T16:29:59.880Z,16.50
2017-10-19T16:32:26.316Z,17.30
2017-10-19T16:34:52.763Z,19.70
2017-10-19T16:37:19.155Z,16.50
2017-10-19T16:39:46.353Z,18.47
2017-10-19T16:42:12.748Z,18.27
2017-10-19T16:44:39.931Z,18.87
2017-10-19T16:47:06.371Z,16.47
2017-10-19T16:49:32.769Z,18.27
2017-10-19T16:51:59.916Z,18.43
2017-10-19T16:54:27.056Z,18.53
2017-10-19T16:56:54.224Z,19.50
2017-10-19T16:59:21.341Z,17.13
2017-10-19T17:01:47.759Z,18.50
2017-10-19T17:04:14.145Z,20.97
2017-10-19T17:06:40.627Z,23.57
2017-10-19T17:09:07.008Z,21.27
2017-10-19T17:11:33.427Z,21.57
2017-10-19T17:14:00.560Z,21.53
2017-10-19T17:16:27.064Z,20.07
2017-10-19T17:18:53.452Z,19.80
2017-10-19T17:21:19.871Z,23.70
2017-10-19T17:23:47.006Z,20.90
2017-10-19T17:26:13.527Z,20.50
2017-10-19T17:28:39.933Z,22.00
2017-10-19T17:31:06.333Z,22.43
2017-10-19T17:33:33.489Z,22.47
2017-10-19T17:35:59.956Z,22.57
2017-10-19T17:38:26.371Z,22.27
2017-10-19T17:40:52.764Z,22.20
2017-10-19T17:43:19.263Z,22.60
2017-10-19T17:45:45.684Z,23.27
2017-10-19T17:48:12.139Z,23.97
2017-10-19T17:50:38.539Z,20.90
2017-10-19T17:53:04.967Z,23.00
2017-10-19T17:55:31.436Z,23.90
2017-10-19T17:57:57.898Z,23.87
2017-10-19T18:00:25.075Z,22.30
2017-10-19T18:02:51.529Z,23.03
2017-10-19T18:05:18.004Z,23.23
2017-10-19T18:07:44.471Z,20.60
2017-10-19T18:10:10.935Z,24.23
2017-10-19T18:12:37.368Z,26.47
2017-10-19T18:15:03.833Z,26.77
2017-10-19T18:17:30.224Z,24.73
2017-10-19T18:19:56.664Z,24.03
2017-10-19T18:22:23.073Z,25.20
2017-10-19T18:24:49.561Z,24.90
2017-10-19T18:27:15.985Z,25.23
2017-10-19T18:29:43.220Z,25.43
2017-10-19T18:32:09.789Z,24.40
2017-10-19T18:34:36.294Z,24.90
2017-10-19T18:37:02.732Z,24.70
2017-10-19T18:39:29.895Z,22.80
2017-10-19T18:41:56.433Z,24.93
2017-10-19T18:44:23.040Z,27.80
2017-10-19T18:46:49.917Z,26.97
2017-10-19T18:49:16.434Z,26.60
2017-10-19T18:51:42.840Z,27.30
2017-10-19T18:54:09.407Z,29.87
2017-10-19T18:56:36.076Z,30.20
2017-10-19T18:59:02.730Z,29.80
2017-10-19T19:01:29.173Z,30.27
2017-10-19T19:03:55.619Z,28.57
2017-10-19T19:06:22.299Z,30.60
2017-10-19T19:08:49.561Z,29.70
2017-10-19T19:11:16.194Z,28.03
2017-10-19T19:13:43.452Z,28.57
2017-10-19T19:16:10.841Z,29.50
2017-10-19T19:18:37.407Z,31.40
2017-10-19T19:21:04.008Z,29.47
2017-10-19T19:23:31.174Z,31.93
2017-10-19T19:25:57.669Z,30.07
2017-10-19T19:28:24.381Z,30.33
2017-10-19T19:30:51.593Z,29.13
2017-10-19T19:33:18.225Z,31.50
2017-10-19T19:35:45.498Z,32.00
2017-10-19T19:38:12.165Z,32.10
2017-10-19T19:40:38.702Z,31.07
2017-10-19T19:43:05.471Z,30.03
2017-10-19T19:45:33.068Z,31.40
2017-10-19T19:48:00.037Z,32.87
2017-10-19T19:50:26.499Z,33.53
2017-10-19T19:52:52.902Z,32.33
2017-10-19T19:55:19.632Z,31.50
2017-10-19T19:57:46.245Z,34.23
2017-10-19T20:00:12.712Z,31.77
2017-10-19T20:02:39.255Z,33.13
2017-10-19T20:05:06.116Z,31.93
2017-10-19T20:07:32.675Z,34.17
2017-10-19T20:10:00.105Z,32.43
2017-10-19T20:12:26.549Z,33.10
2017-10-19T20:14:54.937Z,29.50
2017-10-19T20:17:24.054Z,32.27
2017-10-19T20:19:56.790Z,33.40
2017-10-19T20:22:25.293Z,30.67
2017-10-19T20:24:53.989Z,34.80
2017-10-19T20:27:22.909Z,35.27
2017-10-19T20:29:51.345Z,32.20
2017-10-19T20:32:18.581Z,31.40
2017-10-19T20:34:46.120Z,35.57
2017-10-19T20:37:13.367Z,33.03
2017-10-19T20:39:40.694Z,35.03
2017-10-19T20:42:07.878Z,36.20
2017-10-19T20:44:34.424Z,32.83
2017-10-19T20:47:01.708Z,36.27
2017-10-19T20:49:28.641Z,35.07
2017-10-19T20:51:55.379Z,34.00
2017-10-19T20:54:22.121Z,36.97
2017-10-19T20:56:49.808Z,34.63
2017-10-19T20:59:16.751Z,35.07
2017-10-19T21:01:43.316Z,31.30
2017-10-19T21:04:09.868Z,34.43
2017-10-19T21:06:36.303Z,33.57
2017-10-19T21:09:02.850Z,36.50
2017-10-19T21:11:30.111Z,34.47
2017-10-19T21:13:57.315Z,34.03
2017-10-19T21:16:24.669Z,34.93
2017-10-19T21:18:51.069Z,33.13
2017-10-19T21:21:17.550Z,36.23
2017-10-19T21:23:43.949Z,34.53
2017-10-19T21:26:11.166Z,36.23
2017-10-19T21:28:37.621Z,35.07
2017-10-19T21:31:04.036Z,36.47
2017-10-19T21:33:30.470Z,38.13
2017-10-19T21:35:56.973Z,38.33
2017-10-19T21:38:23.394Z,38.40
2017-10-19T21:40:49.835Z,38.90
2017-10-19T21:43:16.260Z,36.30
2017-10-19T21:45:42.759Z,34.87
2017-10-19T21:48:10.027Z,36.20
2017-10-19T21:50:37.194Z,38.03
2017-10-19T21:53:03.591Z,36.17
2017-10-19T21:55:30.116Z,38.07
2017-10-19T21:57:56.551Z,39.87
2017-10-19T22:00:23.060Z,39.17
2017-10-19T22:02:49.482Z,39.43
2017-10-19T22:05:15.969Z,37.17
2017-10-19T22:07:43.143Z,38.57
2017-10-19T22:10:09.573Z,40.33
2017-10-19T22:12:36.004Z,35.57
2017-10-19T22:15:02.537Z,36.00
2017-10-19T22:17:29.037Z,37.30
2017-10-19T22:19:55.460Z,37.93
2017-10-19T22:22:22.597Z,35.67
2017-10-19T22:24:49.041Z,38.70
2017-10-19T22:27:15.455Z,36.90
2017-10-19T22:29:41.875Z,36.80
2017-10-19T22:32:08.268Z,34.50
2017-10-19T22:34:35.579Z,34.87
2017-10-19T22:37:02.012Z,36.93
2017-10-19T22:39:28.437Z,37.77
2017-10-19T22:41:54.945Z,36.93
2017-10-19T22:44:21.351Z,39.33
2017-10-19T22:46:48.567Z,42.63
2017-10-19T22:49:14.975Z,34.57
2017-10-19T22:51:41.375Z,34.57
2017-10-19T22:54:08.512Z,38.80
2017-10-19T22:56:35.744Z,37.80
2017-10-19T22:59:02.156Z,39.83
2017-10-19T23:01:28.572Z,34.30
2017-10-19T23:03:54.990Z,35.47
2017-10-19T23:06:21.452Z,38.10
2017-10-19T23:08:47.891Z,35.57
2017-10-19T23:11:14.298Z,39.33
2017-10-19T23:13:40.702Z,39.30
2017-10-19T23:16:07.960Z,39.70
2017-10-19T23:18:35.315Z,39.87
2017-10-19T23:21:02.520Z,38.77
2017-10-19T23:23:28.919Z,39.77
2017-10-19T23:25:55.400Z,39.57
2017-10-19T23:28:21.784Z,38.67
2017-10-19T23:30:48.181Z,38.47
2017-10-19T23:33:14.603Z,36.97
2017-10-19T23:35:41.104Z,36.57
2017-10-19T23:38:07.527Z,38.00
2017-10-19T23:40:33.960Z,35.50
2017-10-19T23:43:00.396Z,36.00
2017-10-19T23:45:26.844Z,35.60
2017-10-19T23:47:53.312Z,36.30
2017-10-19T23:50:20.456Z,33.20
2017-10-19T23:52:46.880Z,36.90
2017-10-19T23:55:13.279Z,34.20
2017-10-19T23:57:39.700Z,35.23
